Time;durP1;ratioP1;P1;durP2;ratioP2;P2;SDS_P1;SDS_P2;PMS_P1;PMS_P2;Temp;Humidity;BMP_temperature;BMP_pressure;BME280_temperature;BME280_humidity;BME280_pressure;Samples;Min_cycle;Max_cycle;Signal;HPM_P1;HPM_P2
2022/10/18 00:01:08;;;;;;;29.85;16.83;;;;;;;13.02;100.00;99963.88;5172744;27;20089;-56
2022/10/18 00:03:35;;;;;;;31.35;16.33;;;;;;;12.97;100.00;99944.09;5172524;27;20050;-55
2022/10/18 00:06:02;;;;;;;29.95;16.55;;;;;;;12.79;100.00;99929.97;5173077;27;20054;-56
2022/10/18 00:08:28;;;;;;;28.33;17.33;;;;;;;12.88;100.00;99905.78;5172524;27;20050;-56
2022/10/18 00:10:55;;;;;;;29.73;16.55;;;;;;;12.68;100.00;99889.28;5172764;27;20054;-55
2022/10/18 00:13:21;;;;;;;34.85;17.20;;;;;;;12.66;100.00;99861.34;5172050;27;20054;-57
2022/10/18 00:15:49;;;;;;;35.13;18.58;;;;;;;12.75;100.00;99832.81;5172033;27;20054;-55
2022/10/18 00:18:16;;;;;;;34.35;17.88;;;;;;;12.60;100.00;99818.78;5172547;27;20046;-56
2022/10/18 00:20:42;;;;;;;33.25;17.20;;;;;;;12.95;100.00;99809.59;5172605;27;20106;-56
2022/10/18 00:23:08;;;;;;;34.47;17.92;;;;;;;12.88;100.00;99817.72;5172777;27;20045;-55
2022/10/18 00:25:34;;;;;;;35.22;17.75;;;;;;;12.88;100.00;99801.22;5172357;27;20046;-55
2022/10/18 00:28:01;;;;;;;34.45;16.77;;;;;;;13.11;100.00;99809.50;5172780;27;20054;-56
2022/10/18 00:30:27;;;;;;;28.30;16.90;;;;;;;13.30;100.00;99827.97;5172425;27;20527;-56
2022/10/18 00:32:53;;;;;;;31.63;17.38;;;;;;;13.32;100.00;99848.44;5172271;27;20057;-55
2022/10/18 00:35:20;;;;;;;31.33;16.83;;;;;;;12.90;100.00;99845.69;5172158;27;20516;-56
2022/10/18 00:37:46;;;;;;;35.40;17.77;;;;;;;13.07;100.00;99831.47;5172471;27;20057;-56
2022/10/18 00:40:12;;;;;;;33.33;18.33;;;;;;;13.01;100.00;99810.91;5172298;27;20053;-54
2022/10/18 00:42:38;;;;;;;34.13;18.63;;;;;;;12.92;100.00;99793.81;5172432;27;20057;-56
2022/10/18 00:45:18;;;;;;;31.23;18.38;;;;;;;13.00;100.00;99775.50;5172357;27;20046;-56
2022/10/18 00:47:49;;;;;;;32.40;18.40;;;;;;;13.28;100.00;99759.47;5172065;27;20058;-56
2022/10/18 00:50:16;;;;;;;32.55;18.65;;;;;;;13.33;100.00;99767.44;5172207;27;20046;-56
2022/10/18 00:52:47;;;;;;;29.67;18.02;;;;;;;13.28;100.00;99784.25;5172034;27;20106;-52
2022/10/18 00:55:13;;;;;;;30.73;18.60;;;;;;;13.37;100.00;99784.81;5172185;27;20501;-55
2022/10/18 00:57:42;;;;;;;31.45;18.08;;;;;;;13.50;100.00;99793.69;5171843;27;20445;-55
2022/10/18 01:00:10;;;;;;;33.15;18.33;;;;;;;13.40;100.00;99791.56;5172102;27;20046;-56
2022/10/18 01:02:37;;;;;;;32.45;17.88;;;;;;;13.27;100.00;99803.91;5172076;27;20046;-56
2022/10/18 01:05:04;;;;;;;24.95;15.93;;;;;;;13.33;100.00;99796.94;5171862;27;20049;-57
2022/10/18 01:07:43;;;;;;;30.42;16.25;;;;;;;13.27;100.00;99781.88;5171949;27;20046;-56
2022/10/18 01:10:28;;;;;;;28.38;17.40;;;;;;;13.18;100.00;99763.63;5171959;27;20466;-56
2022/10/18 01:13:19;;;;;;;30.42;17.15;;;;;;;13.15;100.00;99764.34;5172029;27;20046;-55
2022/10/18 01:15:54;;;;;;;26.67;16.45;;;;;;;13.22;100.00;99763.66;5171678;27;20042;-55
2022/10/18 01:18:26;;;;;;;31.35;15.70;;;;;;;13.23;100.00;99764.47;5171782;27;20174;-56
2022/10/18 01:21:22;;;;;;;27.83;15.68;;;;;;;13.24;100.00;99775.16;5171796;27;20078;-56
2022/10/18 01:24:22;;;;;;;38.67;18.35;;;;;;;13.52;100.00;99796.84;5164800;27;20050;-55
2022/10/18 01:27:11;;;;;;;32.65;17.15;;;;;;;13.63;100.00;99789.56;5161091;27;20046;-56
2022/10/18 01:29:50;;;;;;;31.48;16.92;;;;;;;13.24;100.00;99788.09;5175511;27;20050;-56
2022/10/18 01:32:21;;;;;;;29.17;16.55;;;;;;;13.47;100.00;99777.88;5175085;27;20416;-55
2022/10/18 01:34:52;;;;;;;33.40;17.75;;;;;;;13.50;100.00;99777.16;5175339;27;20409;-55
2022/10/18 01:37:20;;;;;;;27.05;16.75;;;;;;;13.60;100.00;99787.53;5175167;27;20050;-56
2022/10/18 01:39:47;;;;;;;31.27;17.45;;;;;;;13.27;100.00;99790.16;5175524;27;20046;-57
2022/10/18 01:42:20;;;;;;;31.30;18.45;;;;;;;13.51;100.00;99770.47;5175170;27;20046;-56
2022/10/18 01:44:47;;;;;;;32.88;18.80;;;;;;;13.29;100.00;99766.56;5175083;27;20050;-56
2022/10/18 01:47:14;;;;;;;37.35;17.67;;;;;;;13.27;100.00;99746.09;5174854;27;20050;-56
2022/10/18 01:49:41;;;;;;;35.13;17.77;;;;;;;13.36;100.00;99738.34;5174969;27;20054;-56
2022/10/18 01:52:11;;;;;;;33.40;17.85;;;;;;;13.47;100.00;99731.06;5174794;27;20050;-56
2022/10/18 01:54:41;;;;;;;34.22;18.02;;;;;;;13.47;100.00;99735.78;5175030;27;20053;-55
2022/10/18 01:57:17;;;;;;;35.83;19.25;;;;;;;13.50;100.00;99735.84;5175037;27;20046;-55
2022/10/18 01:59:51;;;;;;;33.45;18.10;;;;;;;13.38;100.00;99747.06;5174917;27;20386;-57
2022/10/18 02:02:22;;;;;;;;;;;;;;;13.42;100.00;99729.41;5175358;27;20056;-56
2022/10/18 02:04:54;;;;;;;37.20;18.42;;;;;;;13.51;100.00;99737.41;5174604;27;19922;-56
2022/10/18 02:07:28;;;;;;;31.40;17.52;;;;;;;13.69;100.00;99758.91;5174935;27;20054;-56
2022/10/18 02:10:05;;;;;;;33.63;18.13;;;;;;;14.01;100.00;99798.78;5174668;27;20046;-55
2022/10/18 02:12:33;;;;;;;33.45;19.17;;;;;;;14.06;100.00;99850.03;5174332;27;20061;-57
2022/10/18 02:15:01;;;;;;;31.13;17.23;;;;;;;13.82;100.00;99860.28;5174472;27;20043;-57
2022/10/18 02:17:29;;;;;;;33.83;17.92;;;;;;;13.67;100.00;99841.97;5174309;27;20054;-56
2022/10/18 02:19:57;;;;;;;31.60;16.88;;;;;;;13.47;100.00;99824.72;5174414;27;20526;-56
2022/10/18 02:22:27;;;;;;;27.88;15.77;;;;;;;13.44;100.00;99791.59;5174239;27;20058;-56
2022/10/18 02:24:56;;;;;;;29.55;15.95;;;;;;;13.41;100.00;99777.41;5174743;27;20053;-56
2022/10/18 02:27:23;;;;;;;36.92;16.40;;;;;;;13.33;100.00;99774.91;5174382;27;20050;-56
2022/10/18 02:29:49;;;;;;;35.35;17.25;;;;;;;13.59;100.00;99746.56;5174804;27;20561;-55
2022/10/18 02:32:23;;;;;;;31.58;17.38;;;;;;;13.53;100.00;99753.56;5174407;27;20551;-55
2022/10/18 02:34:55;;;;;;;;;;;;;;;13.52;100.00;99766.53;5174692;27;20054;-56
2022/10/18 02:37:24;;;;;;;30.08;15.63;;;;;;;13.21;100.00;99758.53;5173467;27;19973;-56
2022/10/18 02:39:51;;;;;;;31.67;16.95;;;;;;;13.26;100.00;99733.47;5173899;27;20050;-56
2022/10/18 02:42:17;;;;;;;28.00;16.55;;;;;;;13.17;100.00;99731.75;5174186;27;20042;-56
2022/10/18 02:44:43;;;;;;;37.72;16.92;;;;;;;13.25;100.00;99721.66;5173944;27;20549;-56
2022/10/18 02:47:11;;;;;;;33.45;17.75;;;;;;;13.32;100.00;99696.19;5173631;27;20218;-56
2022/10/18 02:49:37;;;;;;;34.33;16.38;;;;;;;13.57;100.00;99691.06;5173860;27;20051;-55
2022/10/18 02:52:03;;;;;;;28.88;16.75;;;;;;;13.23;100.00;99715.72;5173972;27;20049;-56
2022/10/18 02:54:30;;;;;;;32.30;28.02;;;;;;;13.41;100.00;99705.00;5173744;27;20054;-56
2022/10/18 02:56:56;;;;;;;32.58;17.10;;;;;;;13.54;100.00;99711.09;5173687;27;20046;-57
2022/10/18 02:59:23;;;;;;;30.67;17.40;;;;;;;13.44;100.00;99720.78;5173681;27;20050;-56
2022/10/18 03:01:49;;;;;;;29.48;16.67;;;;;;;13.35;100.00;99725.75;5173508;27;20062;-56
2022/10/18 03:04:15;;;;;;;33.13;18.48;;;;;;;13.42;100.00;99720.34;5173727;27;20046;-56
2022/10/18 03:06:41;;;;;;;26.80;15.93;;;;;;;13.40;100.00;99729.00;5173901;27;20141;-57
2022/10/18 03:09:07;;;;;;;33.30;17.80;;;;;;;13.49;100.00;99723.22;5173712;27;20050;-54
2022/10/18 03:11:34;;;;;;;30.58;16.33;;;;;;;13.42;100.00;99736.88;5173481;27;20500;-54
2022/10/18 03:14:01;;;;;;;28.75;16.50;;;;;;;13.71;100.00;99762.13;5173713;27;20046;-56
2022/10/18 03:16:27;;;;;;;31.83;16.88;;;;;;;13.45;100.00;99782.97;5173663;27;20386;-56
2022/10/18 03:18:53;;;;;;;29.13;16.65;;;;;;;13.51;100.00;99764.97;5173463;27;20049;-56
2022/10/18 03:21:19;;;;;;;31.80;15.85;;;;;;;13.59;100.00;99783.19;5173309;27;20429;-55
2022/10/18 03:23:46;;;;;;;29.40;15.07;;;;;;;13.28;100.00;99764.19;5173638;27;20126;-56
2022/10/18 03:26:12;;;;;;;26.25;15.35;;;;;;;13.18;100.00;99749.84;5173263;27;20053;-57
2022/10/18 03:28:39;;;;;;;28.55;15.82;;;;;;;13.32;100.00;99732.00;5173617;27;20042;-56
2022/10/18 03:31:05;;;;;;;28.90;14.07;;;;;;;13.10;100.00;99717.09;5173497;27;20046;-56
2022/10/18 03:33:32;;;;;;;31.70;14.88;;;;;;;13.17;100.00;99701.47;5173404;27;20050;-58
2022/10/18 03:35:59;;;;;;;27.27;14.38;;;;;;;13.20;100.00;99705.44;5173457;27;20057;-56
2022/10/18 03:38:25;;;;;;;24.02;14.50;;;;;;;13.16;100.00;99707.31;5173264;27;20050;-56
2022/10/18 03:40:52;;;;;;;25.20;15.07;;;;;;;13.10;100.00;99693.09;5173499;27;20054;-57
2022/10/18 03:43:18;;;;;;;28.10;14.75;;;;;;;13.09;100.00;99691.50;5173128;27;20528;-56
2022/10/18 03:45:45;;;;;;;30.67;14.35;;;;;;;13.07;100.00;99693.84;5173187;27;20082;-58
2022/10/18 03:48:11;;;;;;;23.38;14.43;;;;;;;13.18;100.00;99683.78;5172280;27;20058;-57
2022/10/18 03:50:37;;;;;;;23.40;13.90;;;;;;;13.14;100.00;99704.94;5172926;27;20454;-57
2022/10/18 03:53:04;;;;;;;28.45;15.20;;;;;;;13.15;100.00;99727.75;5172842;27;20153;-56
2022/10/18 03:55:30;;;;;;;24.58;13.82;;;;;;;13.16;100.00;99723.84;5173141;27;20049;-56
2022/10/18 03:57:56;;;;;;;23.92;14.23;;;;;;;13.11;100.00;99729.66;5172827;27;20095;-56
2022/10/18 04:00:22;;;;;;;31.00;14.98;;;;;;;13.19;100.00;99726.69;5172648;27;20063;-57
2022/10/18 04:02:49;;;;;;;32.40;16.15;;;;;;;13.18;100.00;99738.03;5172887;27;20158;-56
2022/10/18 04:05:15;;;;;;;28.80;15.98;;;;;;;13.13;100.00;99752.13;5172609;27;20050;-56
2022/10/18 04:07:42;;;;;;;28.65;15.57;;;;;;;13.25;100.00;99757.47;5172623;27;20088;-57
2022/10/18 04:10:08;;;;;;;29.90;15.55;;;;;;;13.14;100.00;99761.97;5172584;27;20516;-56
2022/10/18 04:12:34;;;;;;;28.02;15.77;;;;;;;13.00;100.00;99740.50;5172441;27;20066;-56
2022/10/18 04:15:01;;;;;;;27.95;15.63;;;;;;;13.06;100.00;99728.03;5172565;27;20090;-56
2022/10/18 04:17:27;;;;;;;26.98;14.98;;;;;;;12.97;100.00;99699.97;5172626;27;20133;-56
2022/10/18 04:19:54;;;;;;;27.25;14.48;;;;;;;13.14;100.00;99704.94;5172436;27;20054;-54
2022/10/18 04:22:21;;;;;;;33.42;15.43;;;;;;;12.94;100.00;99697.94;5172730;27;20149;-57
2022/10/18 04:24:47;;;;;;;27.33;13.60;;;;;;;12.93;100.00;99694.41;5172260;27;20046;-58
2022/10/18 04:27:13;;;;;;;22.60;14.00;;;;;;;13.09;100.00;99707.22;5172226;27;20050;-56
2022/10/18 04:29:39;;;;;;;24.77;13.85;;;;;;;12.96;100.00;99709.34;5172586;27;20454;-56
2022/10/18 04:32:06;;;;;;;24.30;14.10;;;;;;;13.17;100.00;99697.91;5172196;27;20521;-56
2022/10/18 04:34:32;;;;;;;30.00;15.60;;;;;;;13.12;100.00;99706.47;5172274;27;20050;-56
2022/10/18 04:36:59;;;;;;;27.63;14.90;;;;;;;13.16;100.00;99721.09;5172227;27;20055;-56
2022/10/18 04:39:25;;;;;;;26.08;15.20;;;;;;;13.23;100.00;99748.75;5172191;27;20046;-57
2022/10/18 04:41:51;;;;;;;29.80;15.48;;;;;;;13.37;100.00;99776.56;5172067;27;20046;-56
2022/10/18 04:44:17;;;;;;;28.85;16.55;;;;;;;13.21;100.00;99786.06;5172162;27;20096;-56
2022/10/18 04:46:43;;;;;;;30.08;15.30;;;;;;;13.08;100.00;99777.19;5171978;27;20537;-57
2022/10/18 04:49:10;;;;;;;25.27;15.13;;;;;;;12.87;100.00;99763.88;5172286;27;20458;-55
2022/10/18 04:51:36;;;;;;;23.95;15.57;;;;;;;13.08;100.00;99752.44;5171924;27;20515;-55
2022/10/18 04:54:03;;;;;;;28.77;14.45;;;;;;;13.19;100.00;99745.94;5172223;27;20050;-55
2022/10/18 04:56:29;;;;;;;35.80;15.40;;;;;;;13.08;100.00;99755.97;5171768;27;20050;-56
2022/10/18 04:58:55;;;;;;;23.55;14.38;;;;;;;13.32;100.00;99784.31;5171971;27;20153;-56
2022/10/18 05:01:22;;;;;;;29.40;15.13;;;;;;;13.22;100.00;99790.41;5174940;27;20097;-54
2022/10/18 05:03:51;;;;;;;29.60;15.05;;;;;;;13.34;100.00;99804.03;5175526;27;20137;-57
2022/10/18 05:06:18;;;;;;;26.45;14.13;;;;;;;13.33;100.00;99802.44;5175661;27;20151;-56
2022/10/18 05:08:44;;;;;;;25.25;14.85;;;;;;;13.41;100.00;99812.41;5175499;27;20050;-56
2022/10/18 05:11:11;;;;;;;24.67;15.20;;;;;;;13.56;100.00;99824.44;5175558;27;20449;-55
2022/10/18 05:13:37;;;;;;;27.73;14.63;;;;;;;13.72;100.00;99857.38;5175617;27;20849;-56
2022/10/18 05:16:04;;;;;;;27.65;14.75;;;;;;;13.86;100.00;99882.41;5175809;27;20057;-57
2022/10/18 05:18:30;;;;;;;29.35;15.60;;;;;;;13.40;100.00;99876.94;5175340;27;20050;-56
2022/10/18 05:20:56;;;;;;;23.98;14.50;;;;;;;13.47;100.00;99882.56;5175375;27;20073;-57
2022/10/18 05:23:23;;;;;;;25.48;15.10;;;;;;;13.65;100.00;99889.16;5175273;27;20046;-57
2022/10/18 05:25:49;;;;;;;30.15;15.45;;;;;;;13.65;100.00;99900.19;5175011;27;20054;-56
2022/10/18 05:28:17;;;;;;;23.23;13.63;;;;;;;14.07;100.00;99921.34;5175355;27;20469;-56
2022/10/18 05:30:43;;;;;;;32.20;14.75;;;;;;;13.85;100.00;99950.50;5174931;27;20053;-57
2022/10/18 05:33:09;;;;;;;22.73;13.18;;;;;;;13.60;100.00;99947.34;5174912;27;20050;-56
2022/10/18 05:35:36;;;;;;;25.55;15.20;;;;;;;14.12;100.00;99940.31;5174848;27;20057;-54
2022/10/18 05:38:03;;;;;;;22.50;13.88;;;;;;;14.10;100.00;99958.41;5174742;27;20082;-57
2022/10/18 05:40:29;;;;;;;23.98;14.32;;;;;;;13.93;100.00;99956.97;5174836;27;20050;-56
2022/10/18 05:42:55;;;;;;;24.92;13.45;;;;;;;14.53;100.00;99973.69;5175246;27;20489;-57
2022/10/18 05:45:22;;;;;;;24.00;14.23;;;;;;;14.81;100.00;99972.50;5174723;27;20061;-57
2022/10/18 05:47:49;;;;;;;29.98;13.95;;;;;;;14.90;100.00;99961.97;5175129;27;20057;-57
2022/10/18 05:50:15;;;;;;;23.25;13.52;;;;;;;14.99;100.00;99945.13;5174762;27;20424;-57
2022/10/18 05:52:41;;;;;;;23.77;13.95;;;;;;;15.26;100.00;99923.72;5174658;27;20053;-57
2022/10/18 05:55:08;;;;;;;25.05;15.18;;;;;;;15.17;100.00;99890.91;5174858;27;20093;-56
2022/10/18 05:57:34;;;;;;;27.27;13.30;;;;;;;15.44;100.00;99860.38;5174622;27;20141;-58
2022/10/18 06:00:00;;;;;;;27.33;13.60;;;;;;;15.54;100.00;99785.06;5174767;27;20046;-58
2022/10/18 06:02:27;;;;;;;28.30;14.77;;;;;;;15.73;100.00;99776.56;5174565;27;20053;-58
2022/10/18 06:04:53;;;;;;;17.77;12.63;;;;;;;15.76;100.00;99747.34;5174820;27;20042;-58
2022/10/18 06:07:19;;;;;;;26.33;13.90;;;;;;;16.16;100.00;99651.53;5174961;27;20054;-58
2022/10/18 06:09:46;;;;;;;21.23;12.73;;;;;;;16.67;100.00;99542.50;5174482;27;20497;-58
2022/10/18 06:12:12;;;;;;;25.67;12.82;;;;;;;16.54;100.00;99419.53;5173183;27;20541;-57
2022/10/18 06:14:38;;;;;;;28.02;13.60;;;;;;;17.26;100.00;99287.09;5174627;27;20046;-56
2022/10/18 06:17:04;;;;;;;27.35;13.02;;;;;;;17.28;100.00;99132.34;5174284;27;20559;-57
2022/10/18 06:19:31;;;;;;;20.80;11.95;;;;;;;17.62;100.00;99051.97;5174235;27;20092;-57
2022/10/18 06:21:57;;;;;;;25.95;14.38;;;;;;;17.48;100.00;99008.59;5174022;27;20493;-57
2022/10/18 06:24:24;;;;;;;23.38;14.93;;;;;;;17.79;100.00;98980.88;5174011;27;20054;-58
2022/10/18 06:26:50;;;;;;;23.58;21.05;;;;;;;18.05;100.00;98855.28;5173603;27;20506;-55
2022/10/18 06:29:16;;;;;;;23.70;12.75;;;;;;;17.68;100.00;98853.50;5173819;27;20047;-58
2022/10/18 06:31:42;;;;;;;19.75;12.80;;;;;;;18.10;100.00;98807.66;5171952;27;20078;-63
2022/10/18 06:34:08;;;;;;;22.45;17.63;;;;;;;18.10;100.00;98860.34;5173946;27;20049;-63
2022/10/18 06:36:35;;;;;;;30.23;13.07;;;;;;;17.94;100.00;98748.53;5174027;27;20053;-56
2022/10/18 06:39:01;;;;;;;18.80;12.98;;;;;;;17.89;100.00;98808.00;5174088;27;20046;-60
2022/10/18 06:41:28;;;;;;;20.75;13.73;;;;;;;18.00;100.00;98824.47;5174460;27;20099;-60
2022/10/18 06:43:56;;;;;;;25.30;12.70;;;;;;;18.60;100.00;98699.63;5173941;27;20050;-62
2022/10/18 06:46:22;;;;;;;22.23;12.82;;;;;;;18.79;100.00;98618.28;5174296;27;20069;-58
2022/10/18 06:48:49;;;;;;;24.55;13.48;;;;;;;18.41;100.00;98649.25;5174031;27;20057;-61
2022/10/18 06:51:15;;;;;;;26.73;13.45;;;;;;;17.69;100.00;98666.53;5173884;27;20050;-57
2022/10/18 06:53:42;;;;;;;24.67;13.68;;;;;;;18.58;100.00;98733.34;5173962;27;20140;-61
2022/10/18 06:56:11;;;;;;;32.65;13.70;;;;;;;18.39;100.00;98657.22;5173373;27;20527;-62
2022/10/18 06:58:37;;;;;;;22.98;12.80;;;;;;;18.76;100.00;98678.25;5173984;27;20600;-60
2022/10/18 07:01:08;;;;;;;25.10;12.80;;;;;;;18.88;100.00;98612.91;5173779;27;20572;-59
2022/10/18 07:03:34;;;;;;;43.33;16.10;;;;;;;18.96;100.00;98605.16;5173363;27;20057;-57
2022/10/18 07:06:01;;;;;;;42.72;16.45;;;;;;;18.80;100.00;98656.72;5173761;27;20053;-58
2022/10/18 07:08:27;;;;;;;57.42;22.00;;;;;;;17.91;100.00;98849.97;5173714;27;20439;-60
2022/10/18 07:10:54;;;;;;;32.75;23.77;;;;;;;18.00;100.00;98857.78;5173167;27;20524;-59
2022/10/18 07:13:22;;;;;;;27.05;13.93;;;;;;;17.40;100.00;98933.09;5173554;27;20072;-59
2022/10/18 07:15:48;;;;;;;29.95;14.27;;;;;;;17.49;100.00;99060.03;5173268;27;20049;-59
2022/10/18 07:18:14;;;;;;;37.60;16.98;;;;;;;17.16;100.00;99238.91;5173316;27;20416;-58
2022/10/18 07:20:40;;;;;;;35.25;17.00;;;;;;;17.22;100.00;99181.06;5173387;27;20631;-58
2022/10/18 07:23:08;;;;;;;24.48;18.85;;;;;;;17.47;100.00;99208.56;5173071;27;20087;-58
2022/10/18 07:25:34;;;;;;;29.92;14.93;;;;;;;17.80;100.00;99060.13;5173358;27;20045;-58
2022/10/18 07:28:01;;;;;;;20.77;11.43;;;;;;;17.80;100.00;98897.31;5173341;27;20750;-58
2022/10/18 07:30:27;;;;;;;64.40;23.48;;;;;;;18.45;100.00;99004.44;5173418;27;20157;-58
2022/10/18 07:32:54;;;;;;;18.65;11.80;;;;;;;18.28;100.00;98782.31;5173068;27;20057;-58
2022/10/18 07:35:20;;;;;;;21.35;17.33;;;;;;;18.63;100.00;98754.28;5172937;27;20132;-58
2022/10/18 07:37:46;;;;;;;28.10;14.10;;;;;;;18.96;100.00;98685.72;5172629;27;20050;-58
2022/10/18 07:40:12;;;;;;;22.10;13.90;;;;;;;19.04;100.00;98684.34;5172956;27;20085;-59
2022/10/18 07:42:39;;;;;;;28.02;13.73;;;;;;;18.94;100.00;98724.28;5172750;27;20093;-58
2022/10/18 07:45:06;;;;;;;28.33;12.68;;;;;;;18.78;100.00;98713.91;5172711;27;20085;-59
2022/10/18 07:47:32;;;;;;;26.35;13.15;;;;;;;18.97;100.00;98751.19;5172745;27;20050;-59
2022/10/18 07:49:59;;;;;;;28.85;15.88;;;;;;;18.88;100.00;98793.44;5172540;27;20575;-58
2022/10/18 07:52:25;;;;;;;80.82;18.92;;;;;;;18.84;100.00;98809.41;5172698;27;20053;-59
2022/10/18 07:54:51;;;;;;;24.77;13.35;;;;;;;19.13;100.00;98812.34;5172745;27;20058;-59
2022/10/18 07:57:17;;;;;;;22.15;12.35;;;;;;;19.22;100.00;98801.41;5172352;27;20525;-59
2022/10/18 07:59:46;;;;;;;40.08;15.68;;;;;;;19.84;100.00;98695.06;5172700;27;20046;-59
2022/10/18 08:02:13;;;;;;;26.98;11.90;;;;;;;20.45;100.00;98563.25;5172797;27;20393;-59
2022/10/18 08:04:40;;;;;;;17.38;11.10;;;;;;;20.89;100.00;98505.72;5172510;27;20077;-59
2022/10/18 08:07:06;;;;;;;24.27;11.40;;;;;;;21.36;100.00;98477.00;5172716;27;20070;-59
2022/10/18 08:09:32;;;;;;;26.83;11.95;;;;;;;21.69;100.00;98462.63;5172392;27;20497;-59
2022/10/18 08:11:59;;;;;;;19.00;11.27;;;;;;;21.67;100.00;98461.53;5172508;27;20073;-59
2022/10/18 08:14:26;;;;;;;27.73;11.30;;;;;;;21.71;100.00;98457.38;5172315;27;20042;-59
2022/10/18 08:16:52;;;;;;;27.30;13.60;;;;;;;21.73;100.00;98465.28;5172110;27;20517;-59
2022/10/18 08:19:19;;;;;;;27.17;13.88;;;;;;;20.95;100.00;98466.13;5172227;27;20047;-59
2022/10/18 08:21:45;;;;;;;14.80;10.90;;;;;;;21.13;100.00;98474.66;5172093;27;20524;-59
2022/10/18 08:24:11;;;;;;;18.33;11.40;;;;;;;21.38;100.00;98473.75;5171975;27;20061;-59
2022/10/18 08:26:37;;;;;;;20.48;11.30;;;;;;;21.34;100.00;98456.34;5172277;27;20072;-59
2022/10/18 08:29:04;;;;;;;20.13;10.77;;;;;;;20.90;100.00;98487.78;5172262;27;20058;-59
2022/10/18 08:31:30;;;;;;;20.00;12.38;;;;;;;20.82;100.00;98485.69;5172237;27;20425;-59
2022/10/18 08:33:56;;;;;;;22.50;11.57;;;;;;;21.12;100.00;98487.78;5172398;27;20064;-60
2022/10/18 08:36:24;;;;;;;20.27;11.70;;;;;;;21.16;100.00;98476.53;5171219;27;20094;-59
2022/10/18 08:38:50;;;;;;;17.05;10.07;;;;;;;20.84;100.00;98497.16;5172045;27;20470;-59
2022/10/18 08:41:40;;;;;;;30.13;16.88;;;;;;;21.11;100.00;98466.72;5171903;27;20138;-59
2022/10/18 08:44:14;;;;;;;17.90;10.13;;;;;;;20.24;100.00;98486.00;5171803;27;20096;-59
2022/10/18 08:46:44;;;;;;;20.13;9.63;;;;;;;20.43;100.00;98493.34;5171972;27;20094;-60
2022/10/18 08:49:21;;;;;;;31.98;11.00;;;;;;;20.99;100.00;98497.44;5171751;27;20409;-60
2022/10/18 08:51:50;;;;;;;17.23;9.90;;;;;;;20.77;100.00;98486.25;5172003;27;20046;-60
2022/10/18 08:54:21;;;;;;;14.93;8.85;;;;;;;21.36;100.00;98496.53;5171945;27;20053;-60
2022/10/18 08:56:57;;;;;;;19.27;10.00;;;;;;;21.34;100.00;98465.53;5171589;27;20043;-59
2022/10/18 08:59:23;;;;;;;17.23;10.60;;;;;;;21.00;100.00;98479.50;5171607;27;20050;-61
2022/10/18 09:02:02;;;;;;;19.83;9.93;;;;;;;21.11;100.00;98471.53;5172052;27;20046;-59
2022/10/18 09:04:43;;;;;;;16.63;8.50;;;;;;;20.88;100.00;98467.16;5171898;27;20051;-60
2022/10/18 09:07:23;;;;;;;15.05;9.85;;;;;;;20.96;100.00;98456.53;5171536;27;20061;-59
2022/10/18 09:09:58;;;;;;;17.65;9.27;;;;;;;21.23;100.00;98467.13;5171829;27;20508;-60
2022/10/18 09:12:37;;;;;;;15.35;8.60;;;;;;;20.87;100.00;98471.19;5171668;27;20121;-60
2022/10/18 09:15:12;;;;;;;21.05;11.95;;;;;;;21.04;100.00;98474.56;5171557;27;20050;-60
2022/10/18 09:18:08;;;;;;;26.13;9.18;;;;;;;21.06;100.00;98472.09;5171592;27;20155;-60
2022/10/18 09:20:50;;;;;;;21.48;9.32;;;;;;;20.84;100.00;98503.50;5171430;27;20081;-60
2022/10/18 09:23:21;;;;;;;15.30;12.02;;;;;;;20.41;100.00;98527.16;5171473;27;20049;-60
2022/10/18 09:25:52;;;;;;;88.95;14.73;;;;;;;20.44;100.00;98520.72;5171584;27;20046;-59
2022/10/18 09:28:29;;;;;;;24.13;9.05;;;;;;;20.41;100.00;98540.31;5171394;27;20061;-59
2022/10/18 09:31:04;;;;;;;65.85;12.13;;;;;;;20.54;100.00;98534.78;5171251;27;20464;-59
2022/10/18 09:33:42;;;;;;;42.22;9.40;;;;;;;20.13;100.00;98565.03;5171374;27;20058;-59
2022/10/18 09:36:10;;;;;;;47.08;11.32;;;;;;;20.16;100.00;98563.38;5171584;27;20045;-58
2022/10/18 09:38:42;;;;;;;20.45;9.02;;;;;;;20.18;100.00;98581.16;5171184;27;20088;-58
2022/10/18 09:41:16;;;;;;;26.88;10.15;;;;;;;19.97;100.00;98592.94;5171464;27;20099;-59
2022/10/18 09:43:49;;;;;;;20.52;8.68;;;;;;;19.80;100.00;98635.97;5171249;27;20170;-59
2022/10/18 09:46:18;;;;;;;12.82;8.57;;;;;;;19.68;100.00;98641.03;5172425;27;20517;-60
2022/10/18 09:48:48;;;;;;;16.05;8.30;;;;;;;19.67;100.00;98672.06;5174853;27;20057;-60
2022/10/18 09:51:20;;;;;;;21.13;9.93;;;;;;;19.68;100.00;98641.03;5174461;27;20505;-60
2022/10/18 09:54:06;;;;;;;28.27;10.27;;;;;;;19.61;100.00;98685.69;5174683;27;20050;-59
2022/10/18 09:56:37;;;;;;;11.73;7.82;;;;;;;19.37;100.00;98701.03;5174580;27;20061;-60
2022/10/18 09:59:03;;;;;;;19.40;7.20;;;;;;;19.16;100.00;98830.94;5174824;27;20046;-60
2022/10/18 10:01:32;;;;;;;21.75;8.00;;;;;;;19.48;100.00;98785.69;5174697;27;20498;-60
2022/10/18 10:03:58;;;;;;;13.52;9.40;;;;;;;19.42;100.00;98767.19;5174506;27;20079;-60
2022/10/18 10:06:26;;;;;;;54.42;16.10;;;;;;;19.31;100.00;98856.38;5174378;27;20081;-59
2022/10/18 10:09:04;;;;;;;19.08;9.88;;;;;;;19.35;100.00;98820.19;5174441;27;20509;-59
2022/10/18 10:11:34;;;;;;;22.33;9.07;;;;;;;19.21;100.00;98788.72;5174164;27;20050;-59
2022/10/18 10:14:09;;;;;;;18.25;8.80;;;;;;;18.88;100.00;98843.41;5174280;27;20046;-59
2022/10/18 10:16:50;;;;;;;37.17;11.00;;;;;;;18.91;100.00;98941.78;5174371;27;20081;-59
2022/10/18 10:19:18;;;;;;;12.98;8.00;;;;;;;18.80;100.00;98928.09;5174414;27;20050;-58
2022/10/18 10:21:46;;;;;;;48.30;10.60;;;;;;;18.66;100.00;98997.75;5174255;27;20050;-58
2022/10/18 10:24:21;;;;;;;21.65;9.25;;;;;;;18.66;100.00;99040.19;5174204;27;20105;-59
2022/10/18 10:26:47;;;;;;;16.58;8.68;;;;;;;18.55;100.00;99026.47;5174252;27;20133;-59
2022/10/18 10:29:50;;;;;;;18.10;8.55;;;;;;;18.70;100.00;99054.78;5174072;27;20080;-58
2022/10/18 10:32:19;;;;;;;23.50;8.38;;;;;;;18.70;100.00;99021.47;5174163;27;20053;-59
2022/10/18 10:34:45;;;;;;;15.98;10.98;;;;;;;18.70;100.00;98985.38;5174191;27;20046;-58
2022/10/18 10:37:24;;;;;;;65.20;10.25;;;;;;;18.50;100.00;98940.13;5174203;27;20148;-58
2022/10/18 10:40:18;;;;;;;16.88;7.28;;;;;;;18.80;100.00;98837.25;5174216;27;20133;-58
2022/10/18 10:43:10;;;;;;;25.35;7.35;;;;;;;18.76;100.00;98828.22;5173813;27;20091;-58
2022/10/18 10:45:42;;;;;;;9.25;6.53;;;;;;;18.63;100.00;98909.78;5170672;27;20054;-58
2022/10/18 10:48:15;;;;;;;13.15;7.03;;;;;;;18.65;100.00;98835.16;5173509;27;20050;-58
2022/10/18 10:50:52;;;;;;;14.27;6.80;;;;;;;18.48;100.00;98823.97;5174209;27;20070;-58
2022/10/18 10:53:41;;;;;;;12.32;6.85;;;;;;;18.73;100.00;98817.94;5173727;27;20056;-58
2022/10/18 10:56:17;;;;;;;12.45;7.03;;;;;;;18.83;100.00;98779.25;5173421;27;20050;-58
2022/10/18 10:58:44;;;;;;;38.40;9.35;;;;;;;18.79;100.00;98798.78;5173217;27;20056;-58
2022/10/18 11:01:22;;;;;;;17.20;5.65;;;;;;;18.53;100.00;98787.41;5173828;27;20049;-58
2022/10/18 11:03:51;;;;;;;20.65;8.32;;;;;;;18.43;100.00;98866.09;5173446;27;20046;-58
2022/10/18 11:06:53;;;;;;;15.23;7.97;;;;;;;18.54;100.00;98872.22;5173437;27;20102;-58
2022/10/18 11:09:27;;;;;;;12.10;7.35;;;;;;;18.63;100.00;98749.53;5147200;27;20511;-58
2022/10/18 11:12:03;;;;;;;10.40;6.57;;;;;;;18.48;100.00;98764.91;5173218;27;20061;-58
2022/10/18 11:14:35;;;;;;;14.57;5.97;;;;;;;18.15;100.00;98772.28;5173300;27;20497;-58
2022/10/18 11:17:12;;;;;;;31.63;11.18;;;;;;;18.27;100.00;98735.59;5173037;27;20075;-58
2022/10/18 11:19:49;;;;;;;15.07;6.57;;;;;;;18.35;100.00;98728.69;5173079;27;20054;-58
2022/10/18 11:22:20;;;;;;;17.02;8.57;;;;;;;18.66;100.00;98648.72;5172920;27;20057;-58